Time;durP1;ratioP1;P1;durP2;ratioP2;P2;SDS_P1;SDS_P2;PMS_P1;PMS_P2;Temp;Humidity;BMP_temperature;BMP_pressure;BME280_temperature;BME280_humidity;BME280_pressure;Samples;Min_cycle;Max_cycle;Signal;HPM_P1;HPM_P2
2021/09/24 00:00:59;;;;;;;26.00;4.20;;;10.70;93.60;;;;;;5032303;28;20594;-66
2021/09/24 00:03:26;;;;;;;26.35;4.07;;;10.70;93.50;;;;;;5027540;28;20033;-66
2021/09/24 00:05:51;;;;;;;29.77;5.22;;;10.80;93.50;;;;;;5033026;28;20032;-67
2021/09/24 00:08:17;;;;;;;32.22;4.70;;;10.80;93.00;;;;;;5027273;28;20048;-66
2021/09/24 00:10:43;;;;;;;27.48;4.90;;;10.80;93.20;;;;;;5027159;28;20049;-66
2021/09/24 00:13:09;;;;;;;33.80;4.68;;;10.70;93.30;;;;;;5022856;28;20539;-66
2021/09/24 00:15:35;;;;;;;31.33;4.70;;;10.70;93.50;;;;;;5023246;28;20055;-64
2021/09/24 00:18:00;;;;;;;27.17;4.93;;;10.60;93.50;;;;;;5024577;28;20053;-66
2021/09/24 00:20:27;;;;;;;28.45;4.75;;;10.60;93.50;;;;;;5032226;28;20416;-67
2021/09/24 00:22:52;;;;;;;25.38;4.45;;;10.50;93.70;;;;;;5024295;28;20052;-66
2021/09/24 00:25:18;;;;;;;26.25;4.28;;;10.60;93.60;;;;;;5030137;28;20037;-67
2021/09/24 00:27:44;;;;;;;28.90;5.13;;;10.50;93.50;;;;;;5035014;28;20025;-66
2021/09/24 00:30:10;;;;;;;23.92;3.90;;;10.40;93.80;;;;;;5020256;28;20025;-66
2021/09/24 00:32:36;;;;;;;32.15;4.22;;;10.40;93.80;;;;;;5023834;28;20443;-65
2021/09/24 00:35:02;;;;;;;33.25;4.43;;;10.30;93.90;;;;;;5019372;28;20030;-65
2021/09/24 00:37:28;;;;;;;27.88;3.65;;;10.30;93.90;;;;;;5020187;28;20022;-66
2021/09/24 00:39:54;;;;;;;28.05;4.63;;;10.30;93.90;;;;;;5030256;28;20039;-67
2021/09/24 00:42:20;;;;;;;26.38;4.32;;;10.30;94.00;;;;;;5028903;28;20476;-66
2021/09/24 00:44:48;;;;;;;27.60;4.25;;;10.30;94.00;;;;;;5021410;28;20108;-66
2021/09/24 00:47:15;;;;;;;28.05;5.05;;;10.30;94.00;;;;;;5025036;28;20212;-67
2021/09/24 00:49:41;;;;;;;36.30;5.40;;;10.30;94.00;;;;;;5026575;28;20025;-66
2021/09/24 00:52:07;;;;;;;30.83;4.93;;;10.10;94.10;;;;;;5023174;28;20409;-67
2021/09/24 00:54:33;;;;;;;29.00;5.10;;;10.10;94.30;;;;;;5019608;28;20204;-67
2021/09/24 00:57:03;;;;;;;30.60;4.93;;;10.10;94.30;;;;;;5030097;28;20522;-67
2021/09/24 00:59:29;;;;;;;31.13;4.72;;;10.10;94.40;;;;;;5026011;28;20044;-67
2021/09/24 01:01:56;;;;;;;32.42;4.22;;;10.10;94.30;;;;;;5023822;28;20033;-67
2021/09/24 01:04:22;;;;;;;36.33;4.60;;;10.10;94.50;;;;;;5022629;28;20026;-64
2021/09/24 01:06:49;;;;;;;23.38;4.20;;;10.10;94.20;;;;;;5031468;28;20128;-65
2021/09/24 01:09:14;;;;;;;24.48;4.28;;;10.10;94.20;;;;;;5026851;28;20041;-67
2021/09/24 01:11:40;;;;;;;29.08;4.90;;;10.20;94.30;;;;;;5027573;28;20029;-65
2021/09/24 01:14:06;;;;;;;34.28;5.15;;;10.10;94.20;;;;;;5018505;28;20151;-66
2021/09/24 01:16:32;;;;;;;34.85;3.85;;;10.20;94.40;;;;;;5024091;28;20029;-67
2021/09/24 01:18:58;;;;;;;26.13;4.00;;;10.10;94.20;;;;;;5015006;28;20100;-67
2021/09/24 01:21:25;;;;;;;32.75;4.40;;;10.10;94.30;;;;;;5019341;28;20029;-67
2021/09/24 01:23:50;;;;;;;27.40;3.95;;;10.10;94.40;;;;;;5021578;28;20029;-66
2021/09/24 01:26:16;;;;;;;31.42;4.70;;;10.10;94.30;;;;;;5026507;28;20029;-67
2021/09/24 01:28:45;;;;;;;25.73;4.30;;;10.10;94.30;;;;;;5025950;28;20530;-65
2021/09/24 01:31:12;;;;;;;24.33;3.88;;;10.20;94.10;;;;;;5024308;28;20033;-67
2021/09/24 01:33:46;;;;;;;30.98;4.20;;;10.20;93.90;;;;;;5017982;28;20392;-64
2021/09/24 01:36:12;;;;;;;29.25;4.97;;;10.30;93.90;;;;;;5025913;28;20040;-66
2021/09/24 01:38:38;;;;;;;25.73;4.28;;;10.40;93.60;;;;;;5025407;28;20045;-67
2021/09/24 01:41:05;;;;;;;26.10;5.10;;;10.30;93.50;;;;;;5033108;28;20029;-66
2021/09/24 01:43:32;;;;;;;26.98;4.43;;;10.30;93.60;;;;;;5022008;28;20045;-65
2021/09/24 01:45:57;;;;;;;26.35;4.28;;;10.30;93.70;;;;;;5023213;28;20110;-66
2021/09/24 01:48:23;;;;;;;27.70;4.22;;;10.30;93.70;;;;;;5018398;28;20566;-64
2021/09/24 01:50:48;;;;;;;29.45;4.65;;;10.20;93.70;;;;;;5027239;28;20060;-67
2021/09/24 01:53:14;;;;;;;21.42;3.90;;;10.20;93.80;;;;;;5016145;28;20542;-66
2021/09/24 01:55:40;;;;;;;28.25;3.95;;;10.20;93.80;;;;;;5022853;28;20112;-66
2021/09/24 01:58:05;;;;;;;25.67;3.90;;;10.20;94.00;;;;;;5021585;28;20413;-65
2021/09/24 02:00:31;;;;;;;25.85;3.78;;;10.30;93.80;;;;;;5022692;28;20045;-66
2021/09/24 02:02:57;;;;;;;27.30;4.85;;;10.30;93.70;;;;;;5020544;28;20026;-66
2021/09/24 02:05:22;;;;;;;27.27;4.18;;;10.30;93.70;;;;;;5019894;28;20273;-66
2021/09/24 02:07:48;;;;;;;23.88;3.85;;;10.20;94.00;;;;;;5023275;28;20084;-65
2021/09/24 02:10:14;;;;;;;25.80;4.55;;;10.20;93.90;;;;;;5027520;28;20283;-67
2021/09/24 02:12:39;;;;;;;32.20;5.18;;;10.10;94.10;;;;;;5022704;28;20034;-66
2021/09/24 02:15:05;;;;;;;25.27;3.72;;;10.20;93.90;;;;;;5022811;28;20037;-66
2021/09/24 02:17:31;;;;;;;29.77;4.57;;;10.20;94.00;;;;;;5023542;28;20024;-66
2021/09/24 02:19:56;;;;;;;33.13;4.40;;;10.10;94.10;;;;;;5027767;28;20655;-66
2021/09/24 02:22:22;;;;;;;25.40;3.88;;;10.10;94.20;;;;;;5020117;28;20041;-66
2021/09/24 02:24:47;;;;;;;29.42;4.25;;;10.10;94.40;;;;;;5021135;28;20029;-66
2021/09/24 02:27:13;;;;;;;35.03;4.28;;;10.10;94.40;;;;;;5022408;28;20036;-66
2021/09/24 02:29:39;;;;;;;35.28;3.85;;;10.10;94.50;;;;;;5024011;28;20052;-67
2021/09/24 02:32:05;;;;;;;26.52;4.32;;;10.10;94.40;;;;;;5026004;28;20112;-66
2021/09/24 02:34:31;;;;;;;21.90;3.47;;;10.00;94.40;;;;;;5019591;28;20026;-66
2021/09/24 02:36:56;;;;;;;24.77;4.43;;;10.00;94.70;;;;;;5027037;28;20036;-65
2021/09/24 02:39:22;;;;;;;18.98;3.90;;;10.00;94.70;;;;;;5022599;28;20030;-67
2021/09/24 02:41:48;;;;;;;33.38;4.50;;;9.90;94.70;;;;;;5023895;28;20030;-67
2021/09/24 02:44:14;;;;;;;32.40;4.00;;;9.90;94.80;;;;;;5022456;28;20021;-67
2021/09/24 02:46:40;;;;;;;29.20;5.15;;;10.00;94.90;;;;;;5018891;28;20053;-66
2021/09/24 02:49:06;;;;;;;26.33;4.25;;;9.90;94.90;;;;;;5018720;28;20036;-67
2021/09/24 02:51:32;;;;;;;26.33;4.50;;;9.80;94.90;;;;;;5024314;28;20025;-66
2021/09/24 02:53:57;;;;;;;30.65;3.78;;;9.90;94.90;;;;;;5022042;28;20029;-66
2021/09/24 02:56:23;;;;;;;27.85;3.78;;;9.90;94.90;;;;;;5030728;28;20029;-68
2021/09/24 02:58:49;;;;;;;24.20;4.22;;;9.90;95.00;;;;;;5023231;28;20425;-66
2021/09/24 03:01:14;;;;;;;23.08;4.18;;;9.90;94.90;;;;;;5025910;28;20029;-67
2021/09/24 03:03:40;;;;;;;32.47;4.40;;;9.90;95.10;;;;;;5021375;28;20029;-65
2021/09/24 03:06:06;;;;;;;26.50;4.10;;;9.90;94.90;;;;;;5027219;28;20424;-67
2021/09/24 03:08:31;;;;;;;26.20;4.00;;;9.80;95.00;;;;;;5029356;28;20302;-67
2021/09/24 03:10:57;;;;;;;29.40;4.47;;;9.80;95.00;;;;;;5026574;28;20496;-66
2021/09/24 03:13:23;;;;;;;26.98;4.07;;;9.90;95.10;;;;;;5028529;28;20140;-65
2021/09/24 03:15:48;;;;;;;23.13;3.97;;;9.90;94.80;;;;;;5026566;28;20550;-67
2021/09/24 03:18:14;;;;;;;22.50;3.80;;;9.80;94.80;;;;;;5027913;28;20032;-67
2021/09/24 03:20:40;;;;;;;21.45;4.07;;;9.80;94.90;;;;;;5030584;28;20037;-66
2021/09/24 03:23:05;;;;;;;29.48;4.13;;;9.80;95.00;;;;;;5025219;28;20083;-64
2021/09/24 03:25:31;;;;;;;28.77;3.92;;;9.80;94.90;;;;;;5026601;28;20538;-65
2021/09/24 03:27:57;;;;;;;28.30;4.28;;;9.80;95.10;;;;;;5024393;28;20323;-67
2021/09/24 03:30:24;;;;;;;25.98;3.67;;;9.70;95.10;;;;;;5028053;28;20140;-66
2021/09/24 03:32:50;;;;;;;27.63;4.07;;;9.70;95.30;;;;;;5022934;28;20036;-66
2021/09/24 03:35:15;;;;;;;19.08;3.63;;;9.60;95.50;;;;;;5022940;28;20043;-66
2021/09/24 03:37:41;;;;;;;33.17;4.32;;;9.60;95.70;;;;;;5028349;28;20113;-66
2021/09/24 03:40:08;;;;;;;33.72;3.95;;;9.50;95.90;;;;;;5025842;28;20040;-67
2021/09/24 03:42:34;;;;;;;36.80;4.32;;;9.50;96.10;;;;;;5024322;28;20030;-66
2021/09/24 03:44:59;;;;;;;37.55;4.72;;;9.50;96.30;;;;;;5029183;28;20037;-66
2021/09/24 03:47:25;;;;;;;28.17;4.35;;;9.50;96.50;;;;;;5024108;28;20029;-66
2021/09/24 03:49:50;;;;;;;34.70;4.93;;;9.40;96.70;;;;;;5029543;28;20025;-66
2021/09/24 03:52:16;;;;;;;30.48;3.78;;;9.40;96.90;;;;;;5025323;28;20048;-66
2021/09/24 03:54:42;;;;;;;31.90;4.30;;;9.30;97.00;;;;;;5026113;28;20404;-65
2021/09/24 03:57:07;;;;;;;28.58;4.55;;;9.30;97.20;;;;;;5021868;28;20029;-65
2021/09/24 03:59:33;;;;;;;38.78;4.50;;;9.30;97.50;;;;;;5024302;28;20029;-67
2021/09/24 04:01:58;;;;;;;38.85;5.05;;;9.30;97.60;;;;;;5023179;28;20109;-66
2021/09/24 04:04:24;;;;;;;35.88;5.10;;;9.40;97.80;;;;;;5033576;28;20135;-66
2021/09/24 04:06:50;;;;;;;22.85;5.32;;;9.40;97.90;;;;;;5015859;28;20029;-67
2021/09/24 04:09:15;;;;;;;31.45;4.97;;;9.30;97.90;;;;;;5030028;28;20039;-66
2021/09/24 04:11:41;;;;;;;27.02;4.78;;;9.30;98.00;;;;;;5036490;28;20045;-66
2021/09/24 04:14:07;;;;;;;40.45;4.63;;;9.40;98.20;;;;;;5023526;28;20552;-67
2021/09/24 04:16:33;;;;;;;32.03;4.68;;;9.40;98.30;;;;;;5025715;28;20033;-65
2021/09/24 04:18:58;;;;;;;27.92;4.95;;;9.30;98.30;;;;;;5021286;28;20056;-66
2021/09/24 04:21:24;;;;;;;30.20;5.20;;;9.30;98.30;;;;;;5020454;28;20030;-64
2021/09/24 04:23:50;;;;;;;30.98;5.20;;;9.30;98.50;;;;;;5023417;28;20029;-65
2021/09/24 04:26:15;;;;;;;29.73;5.95;;;9.40;98.60;;;;;;5027685;28;20056;-63
2021/09/24 04:28:41;;;;;;;29.15;5.18;;;9.30;98.60;;;;;;5020346;28;20443;-63
2021/09/24 04:31:06;;;;;;;43.83;6.63;;;9.30;98.50;;;;;;5023589;28;20025;-64
2021/09/24 04:33:32;;;;;;;30.73;5.40;;;9.30;98.70;;;;;;5024838;28;20108;-63
2021/09/24 04:35:58;;;;;;;41.38;5.82;;;9.30;98.70;;;;;;5023993;28;20108;-63
2021/09/24 04:38:24;;;;;;;35.20;5.93;;;9.30;98.80;;;;;;5025549;28;20026;-62
2021/09/24 04:40:50;;;;;;;31.60;5.60;;;9.40;98.90;;;;;;5026239;28;20184;-64
2021/09/24 04:43:16;;;;;;;32.15;5.65;;;9.40;98.90;;;;;;5021149;28;20090;-63
2021/09/24 04:45:41;;;;;;;38.50;6.30;;;9.50;99.00;;;;;;5021820;28;20057;-63
2021/09/24 04:48:07;;;;;;;36.95;6.25;;;9.60;99.10;;;;;;5027877;28;20041;-62
2021/09/24 04:50:33;;;;;;;37.00;6.15;;;9.60;99.10;;;;;;5025919;28;20299;-63
2021/09/24 04:52:58;;;;;;;30.02;6.63;;;9.60;99.10;;;;;;5027135;28;20503;-63
2021/09/24 04:55:24;;;;;;;37.45;5.93;;;9.70;99.10;;;;;;5020347;28;20025;-63
2021/09/24 04:57:49;;;;;;;42.13;6.63;;;9.80;99.10;;;;;;5018456;28;20033;-61
2021/09/24 05:00:15;;;;;;;34.30;6.78;;;9.80;99.10;;;;;;5024300;28;20025;-62
2021/09/24 05:02:42;;;;;;;40.42;6.95;;;9.80;99.10;;;;;;5018354;28;20060;-63
2021/09/24 05:05:09;;;;;;;34.45;6.45;;;9.80;99.10;;;;;;5033182;28;20120;-63
2021/09/24 05:07:35;;;;;;;29.40;6.63;;;10.00;99.20;;;;;;5014724;28;20061;-62
2021/09/24 05:10:01;;;;;;;39.85;7.13;;;10.00;99.10;;;;;;5022596;28;20115;-64
2021/09/24 05:12:26;;;;;;;36.58;6.13;;;10.10;99.10;;;;;;5023772;28;20025;-63
2021/09/24 05:14:52;;;;;;;29.85;6.00;;;10.10;99.00;;;;;;5034738;28;20029;-63
2021/09/24 05:17:18;;;;;;;39.08;6.38;;;10.10;99.00;;;;;;5029846;28;20116;-62
2021/09/24 05:19:43;;;;;;;27.45;5.53;;;10.20;99.00;;;;;;5023971;28;20029;-63
2021/09/24 05:22:09;;;;;;;24.08;5.65;;;10.20;98.90;;;;;;5021691;28;20018;-63
2021/09/24 05:24:34;;;;;;;36.60;6.43;;;10.30;98.90;;;;;;5025754;28;20036;-63
2021/09/24 05:27:00;;;;;;;34.25;5.20;;;10.30;98.80;;;;;;5023057;28;20461;-63
2021/09/24 05:29:29;;;;;;;35.35;5.43;;;10.30;98.80;;;;;;5024504;28;20033;-62
2021/09/24 05:31:55;;;;;;;27.40;4.97;;;10.30;98.80;;;;;;5023450;28;20021;-63
2021/09/24 05:34:22;;;;;;;21.77;5.28;;;10.40;98.80;;;;;;5030391;28;20033;-62
2021/09/24 05:36:48;;;;;;;27.88;5.70;;;10.50;98.80;;;;;;5023806;28;20034;-62
2021/09/24 05:39:13;;;;;;;30.42;4.90;;;10.50;98.70;;;;;;5028370;28;20025;-62
2021/09/24 05:41:39;;;;;;;18.00;4.70;;;10.60;98.70;;;;;;5021803;28;20039;-63
2021/09/24 05:44:05;;;;;;;30.40;5.15;;;10.60;98.60;;;;;;5022100;28;20029;-63
2021/09/24 05:46:30;;;;;;;28.92;4.88;;;10.70;98.60;;;;;;5032802;28;20033;-63
2021/09/24 05:48:56;;;;;;;21.13;4.60;;;10.70;98.50;;;;;;5034663;28;20053;-65
2021/09/24 05:51:22;;;;;;;18.05;4.28;;;10.80;98.50;;;;;;5040686;28;20025;-63
2021/09/24 05:53:48;;;;;;;23.90;4.57;;;10.80;98.50;;;;;;5022170;28;20654;-63
2021/09/24 05:56:14;;;;;;;23.42;4.10;;;10.90;98.50;;;;;;5022966;28;20040;-63
2021/09/24 05:58:39;;;;;;;20.98;4.75;;;11.00;98.50;;;;;;5024421;28;20157;-63
2021/09/24 06:01:05;;;;;;;20.70;4.13;;;11.00;98.40;;;;;;5026675;28;20033;-63
2021/09/24 06:03:31;;;;;;;20.85;4.28;;;11.00;98.40;;;;;;5024883;28;20125;-62
2021/09/24 06:05:56;;;;;;;19.98;4.03;;;11.10;98.40;;;;;;5026169;28;20051;-63
2021/09/24 06:08:22;;;;;;;21.85;4.05;;;11.20;98.40;;;;;;5024299;28;20033;-62
2021/09/24 06:10:48;;;;;;;23.65;4.00;;;11.20;98.40;;;;;;5025179;28;20477;-62
2021/09/24 06:13:13;;;;;;;14.80;3.28;;;11.30;98.30;;;;;;5024414;28;20033;-63
2021/09/24 06:15:39;;;;;;;17.30;3.38;;;11.30;98.20;;;;;;5025091;28;20026;-62
2021/09/24 06:18:05;;;;;;;16.95;3.67;;;11.40;98.20;;;;;;5022170;28;20476;-62
2021/09/24 06:20:32;;;;;;;21.25;3.85;;;11.50;98.10;;;;;;5020998;28;20049;-62
2021/09/24 06:22:57;;;;;;;21.27;3.22;;;11.60;98.00;;;;;;5020746;28;20104;-62
2021/09/24 06:25:23;;;;;;;21.20;3.97;;;11.60;97.80;;;;;;5017246;28;20121;-63
2021/09/24 06:27:49;;;;;;;18.65;3.45;;;11.70;97.80;;;;;;5011413;28;20202;-63
2021/09/24 06:30:20;;;;;;;20.42;3.85;;;11.70;97.70;;;;;;5031598;28;20029;-62
2021/09/24 06:32:46;;;;;;;25.93;4.00;;;11.80;97.60;;;;;;5022381;28;20029;-63
2021/09/24 06:35:13;;;;;;;12.80;3.08;;;11.80;97.50;;;;;;5024228;28;20120;-63
2021/09/24 06:37:39;;;;;;;20.98;3.65;;;11.90;97.40;;;;;;5031860;28;20021;-62
2021/09/24 06:40:07;;;;;;;22.00;3.85;;;11.90;97.40;;;;;;5024169;28;20029;-64
2021/09/24 06:42:34;;;;;;;14.32;2.95;;;12.00;97.40;;;;;;5022841;28;20021;-63
2021/09/24 06:44:59;;;;;;;17.02;3.90;;;12.00;97.30;;;;;;5025194;28;20485;-63
2021/09/24 06:47:26;;;;;;;13.52;3.33;;;12.00;97.30;;;;;;5025261;28;20026;-63
2021/09/24 06:49:52;;;;;;;14.75;3.33;;;12.00;97.40;;;;;;5027275;28;20025;-63
2021/09/24 06:52:19;;;;;;;17.60;3.55;;;12.10;97.40;;;;;;5026460;28;20024;-64
2021/09/24 06:54:45;;;;;;;17.67;3.42;;;12.10;97.30;;;;;;5032108;28;20037;-62
2021/09/24 06:57:11;;;;;;;13.75;3.15;;;12.30;97.30;;;;;;5026303;28;20394;-64
2021/09/24 06:59:37;;;;;;;19.52;3.85;;;12.30;97.20;;;;;;5039475;28;20079;-63
2021/09/24 07:02:03;;;;;;;11.00;2.95;;;12.30;97.00;;;;;;5026109;28;20130;-64
2021/09/24 07:04:28;;;;;;;13.57;3.35;;;12.40;97.00;;;;;;5031672;28;20071;-64
2021/09/24 07:06:54;;;;;;;14.52;3.03;;;12.50;97.00;;;;;;5024901;28;20036;-62
2021/09/24 07:09:20;;;;;;;17.33;3.40;;;12.60;96.90;;;;;;5032017;28;20033;-64
2021/09/24 07:11:48;;;;;;;15.43;3.33;;;12.70;96.80;;;;;;5035979;28;20123;-64
2021/09/24 07:14:15;;;;;;;16.23;3.83;;;12.70;96.50;;;;;;5039907;28;20029;-63
2021/09/24 07:16:41;;;;;;;20.90;4.32;;;12.80;96.50;;;;;;5031982;28;20524;-64
2021/09/24 07:19:07;;;;;;;11.70;3.38;;;12.90;96.40;;;;;;5027072;28;20120;-62
2021/09/24 07:21:33;;;;;;;12.52;2.80;;;13.00;96.30;;;;;;5022871;28;20432;-64
2021/09/24 07:24:00;;;;;;;13.40;3.47;;;13.00;96.30;;;;;;5026737;28;20095;-63
2021/09/24 07:26:27;;;;;;;17.42;3.05;;;13.10;96.30;;;;;;5035077;28;20034;-63
2021/09/24 07:28:53;;;;;;;17.20;2.92;;;13.10;96.40;;;;;;5023961;28;20095;-64
2021/09/24 07:31:20;;;;;;;15.50;3.67;;;13.10;96.40;;;;;;5035233;28;20033;-64
2021/09/24 07:33:46;;;;;;;9.70;2.80;;;13.20;96.50;;;;;;5026477;28;20032;-64
2021/09/24 07:36:11;;;;;;;13.07;3.05;;;13.30;96.30;;;;;;5027421;28;20116;-63
2021/09/24 07:38:37;;;;;;;14.98;3.53;;;13.30;96.00;;;;;;5019344;28;20022;-62
2021/09/24 07:41:03;;;;;;;18.65;3.60;;;13.50;95.90;;;;;;5026388;28;20064;-63
2021/09/24 07:43:28;;;;;;;14.98;3.00;;;13.50;95.90;;;;;;5022379;28;20026;-62
2021/09/24 07:45:56;;;;;;;12.98;3.28;;;13.60;95.80;;;;;;5027809;28;20083;-63
2021/09/24 07:48:22;;;;;;;10.95;2.92;;;13.60;95.50;;;;;;5028654;28;20033;-64
2021/09/24 07:50:48;;;;;;;13.90;3.50;;;13.60;95.60;;;;;;5031619;28;20030;-63
2021/09/24 07:53:13;;;;;;;12.77;3.10;;;13.70;95.40;;;;;;5028589;28;20108;-62
2021/09/24 07:55:39;;;;;;;13.13;3.15;;;13.80;95.30;;;;;;5025460;28;20025;-64
2021/09/24 07:58:05;;;;;;;18.77;3.75;;;13.80;95.10;;;;;;5026332;28;20127;-64
2021/09/24 08:00:30;;;;;;;14.82;3.67;;;13.80;95.10;;;;;;5027275;28;20025;-63
2021/09/24 08:02:56;;;;;;;12.00;3.90;;;13.80;95.10;;;;;;5023815;28;20033;-62
2021/09/24 08:05:22;;;;;;;10.27;3.50;;;13.80;95.20;;;;;;5027126;28;20036;-64
2021/09/24 08:07:48;;;;;;;12.10;3.40;;;13.80;95.40;;;;;;5026038;28;20056;-63
2021/09/24 08:10:13;;;;;;;9.77;3.28;;;13.80;95.40;;;;;;5028457;28;20083;-64
2021/09/24 08:12:39;;;;;;;10.25;3.17;;;13.90;95.40;;;;;;5030308;28;20034;-63
2021/09/24 08:15:07;;;;;;;12.82;3.15;;;14.00;95.30;;;;;;5024432;28;20439;-63
2021/09/24 08:17:32;;;;;;;9.68;2.90;;;14.00;95.30;;;;;;5026371;28;20034;-64
2021/09/24 08:19:58;;;;;;;9.70;2.95;;;14.10;95.30;;;;;;5024107;28;20040;-64
2021/09/24 08:22:25;;;;;;;11.57;3.58;;;14.00;95.20;;;;;;5024464;28;20450;-64
2021/09/24 08:24:50;;;;;;;10.18;3.45;;;14.10;95.20;;;;;;5026547;28;20392;-64
2021/09/24 08:27:16;;;;;;;13.18;3.42;;;14.10;95.30;;;;;;5026193;28;20029;-64
2021/09/24 08:29:42;;;;;;;12.35;3.47;;;14.10;95.30;;;;;;5025737;28;20064;-62
2021/09/24 08:32:08;;;;;;;10.73;3.40;;;14.20;95.20;;;;;;5024695;28;20679;-63
2021/09/24 08:34:33;;;;;;;8.50;3.40;;;14.20;95.10;;;;;;5025082;28;20446;-64
2021/09/24 08:36:59;;;;;;;11.73;3.95;;;14.20;95.00;;;;;;5027787;28;20053;-64
2021/09/24 08:39:24;;;;;;;13.45;4.53;;;14.20;95.10;;;;;;5027840;28;20030;-62
2021/09/24 08:41:50;;;;;;;9.43;4.30;;;14.20;95.20;;;;;;5027080;28;20112;-62
2021/09/24 08:44:16;;;;;;;12.68;5.22;;;14.20;95.10;;;;;;5020290;28;20087;-63
2021/09/24 08:46:42;;;;;;;15.40;5.35;;;14.20;95.20;;;;;;5024592;28;20037;-63
2021/09/24 08:49:08;;;;;;;13.13;5.05;;;14.30;95.30;;;;;;5021348;28;20033;-63
2021/09/24 08:51:34;;;;;;;14.38;5.60;;;14.30;95.30;;;;;;5028852;28;20115;-63
2021/09/24 08:54:03;;;;;;;13.00;5.53;;;14.30;95.20;;;;;;5027116;28;20583;-63
2021/09/24 08:56:29;;;;;;;12.48;5.90;;;14.30;95.20;;;;;;5031358;28;20041;-63
2021/09/24 08:58:55;;;;;;;13.10;5.97;;;14.40;95.10;;;;;;5029780;28;20514;-62
2021/09/24 09:01:20;;;;;;;10.88;5.22;;;14.50;95.10;;;;;;5021849;28;20295;-64
2021/09/24 09:03:47;;;;;;;15.43;5.75;;;14.60;94.80;;;;;;5031204;28;20039;-62
2021/09/24 09:06:15;;;;;;;12.13;5.03;;;14.60;94.70;;;;;;5030789;28;20503;-63
2021/09/24 09:08:41;;;;;;;12.60;4.95;;;14.80;94.40;;;;;;5022922;28;20033;-63
2021/09/24 09:11:17;;;;;;;11.57;4.88;;;14.80;93.90;;;;;;5024579;28;20064;-61
2021/09/24 09:13:52;;;;;;;15.88;5.13;;;15.00;94.30;;;;;;5023116;28;20279;-62
2021/09/24 09:16:23;;;;;;;11.68;4.60;;;15.00;93.60;;;;;;5017290;28;20036;-62
2021/09/24 09:19:02;;;;;;;11.80;4.75;;;15.00;93.60;;;;;;5017496;28;20704;-62
2021/09/24 09:21:28;;;;;;;12.68;4.93;;;15.00;93.50;;;;;;5017934;28;20108;-63
2021/09/24 09:23:55;;;;;;;12.75;4.90;;;15.00;93.70;;;;;;5018520;28;20437;-62
2021/09/24 09:26:21;;;;;;;10.18;5.05;;;15.00;93.90;;;;;;5013895;28;20048;-64
2021/09/24 09:28:56;;;;;;;14.07;4.88;;;15.00;93.70;;;;;;5022756;28;20025;-63
2021/09/24 09:31:26;;;;;;;12.00;5.15;;;15.10;93.70;;;;;;5025771;28;20619;-64
2021/09/24 09:33:58;;;;;;;13.18;5.53;;;15.30;93.70;;;;;;5032604;28;20355;-64
2021/09/24 09:36:30;;;;;;;11.93;4.40;;;15.30;93.40;;;;;;5020692;28;20132;-62
2021/09/24 09:38:56;;;;;;;8.23;4.03;;;15.40;93.60;;;;;;5021380;28;20104;-64
2021/09/24 09:41:23;;;;;;;12.73;4.95;;;15.30;92.90;;;;;;5021003;28;20097;-63
2021/09/24 09:43:52;;;;;;;10.88;4.20;;;15.30;92.80;;;;;;5040471;28;20029;-63
2021/09/24 09:46:24;;;;;;;16.35;4.32;;;15.50;93.30;;;;;;5036887;28;20033;-63
2021/09/24 09:49:11;;;;;;;10.25;4.47;;;15.50;92.90;;;;;;5022330;28;20134;-63
2021/09/24 09:51:39;;;;;;;11.35;4.53;;;15.50;92.90;;;;;;5020611;28;20345;-63
2021/09/24 09:54:07;;;;;;;11.88;4.10;;;15.50;92.70;;;;;;5017456;28;20029;-62
2021/09/24 09:56:41;;;;;;;10.10;4.53;;;15.60;92.80;;;;;;5016295;28;20036;-63
2021/09/24 09:59:29;;;;;;;17.23;5.13;;;15.70;92.90;;;;;;5010944;28;20049;-63
2021/09/24 10:02:21;;;;;;;12.75;4.80;;;15.70;92.80;;;;;;5008407;28;20033;-63
2021/09/24 10:04:53;;;;;;;8.35;4.30;;;15.80;92.90;;;;;;5018161;28;20064;-63
2021/09/24 10:07:23;;;;;;;18.08;4.85;;;15.80;92.40;;;;;;5014048;28;20099;-63
2021/09/24 10:10:09;;;;;;;16.88;5.25;;;15.70;92.30;;;;;;5009662;28;20037;-63
2021/09/24 10:12:35;;;;;;;11.32;4.82;;;15.80;92.50;;;;;;5014765;28;20030;-62
2021/09/24 10:15:01;;;;;;;11.55;4.53;;;15.70;92.60;;;;;;5013815;28;20112;-62
2021/09/24 10:17:27;;;;;;;17.50;5.60;;;15.80;92.30;;;;;;5012101;28;20100;-64
2021/09/24 10:19:56;;;;;;;11.43;5.03;;;15.70;92.50;;;;;;5015053;28;20083;-64
2021/09/24 10:22:26;;;;;;;15.50;4.95;;;15.70;92.60;;;;;;5014721;28;20025;-62
2021/09/24 10:24:53;;;;;;;12.27;4.53;;;15.70;92.90;;;;;;5022277;28;20046;-62
2021/09/24 10:27:44;;;;;;;11.68;3.92;;;15.70;92.50;;;;;;5023518;28;20030;-64
2021/09/24 10:30:11;;;;;;;;;;;15.70;92.30;;;;;;5039913;28;20032;-64
2021/09/24 10:32:51;;;;;;;11.07;3.80;;;15.80;92.40;;;;;;5023974;28;20335;-64
2021/09/24 10:35:17;;;;;;;9.43;3.60;;;15.80;92.20;;;;;;5030487;28;20417;-64
2021/09/24 10:37:48;;;;;;;12.35;3.53;;;15.90;92.00;;;;;;5022107;28;20036;-63
2021/09/24 10:40:20;;;;;;;11.75;4.05;;;16.00;92.10;;;;;;5020447;28;20404;-64
2021/09/24 10:42:48;;;;;;;13.18;4.05;;;16.00;91.40;;;;;;5022119;28;20136;-63
2021/09/24 10:45:35;;;;;;;9.77;3.90;;;16.10;91.40;;;;;;5018415;28;20088;-63
2021/09/24 10:48:22;;;;;;;13.02;4.47;;;16.20;90.90;;;;;;5024219;28;20038;-63
2021/09/24 10:50:52;;;;;;;14.15;5.07;;;16.20;90.50;;;;;;5028332;28;20056;-63
2021/09/24 10:53:28;;;;;;;17.67;5.32;;;16.30;90.80;;;;;;5032757;28;20563;-64
2021/09/24 10:55:54;;;;;;;11.13;4.85;;;16.30;90.30;;;;;;5028982;28;20057;-63
2021/09/24 10:58:23;;;;;;;12.55;6.32;;;16.30;90.30;;;;;;5020886;28;20504;-63
2021/09/24 11:00:50;;;;;;;13.73;6.70;;;16.20;89.80;;;;;;5022182;28;20120;-63
2021/09/24 11:03:21;;;;;;;13.95;7.65;;;16.30;90.00;;;;;;5029432;28;20025;-64
2021/09/24 11:05:53;;;;;;;12.10;7.22;;;16.30;90.10;;;;;;5027190;28;20492;-63
2021/09/24 11:08:36;;;;;;;12.43;7.10;;;16.40;90.30;;;;;;5032333;28;20064;-63
2021/09/24 11:11:22;;;;;;;12.73;7.90;;;16.50;89.80;;;;;;5023592;28;20034;-63
2021/09/24 11:13:59;;;;;;;15.50;7.78;;;16.50;89.40;;;;;;5021468;28;20040;-63
2021/09/24 11:16:43;;;;;;;17.95;7.43;;;16.60;89.30;;;;;;5021036;28;20030;-63
2021/09/24 11:19:41;;;;;;;12.23;7.63;;;16.70;89.50;;;;;;5017626;28;20492;-65
2021/09/24 11:22:09;;;;;;;13.43;7.40;;;16.70;89.10;;;;;;5019128;28;20108;-64
2021/09/24 11:24:37;;;;;;;12.68;7.90;;;16.60;89.30;;;;;;5030635;28;20383;-62
2021/09/24 11:27:06;;;;;;;14.27;7.30;;;16.60;88.90;;;;;;5024776;28;20033;-62
2021/09/24 11:29:36;;;;;;;15.13;8.20;;;16.60;89.60;;;;;;5033450;28;20198;-64
2021/09/24 11:32:02;;;;;;;11.82;7.53;;;16.70;89.00;;;;;;5028189;28;20524;-64
2021/09/24 11:34:38;;;;;;;14.35;7.47;;;16.80;89.40;;;;;;5029941;28;20040;-62
2021/09/24 11:37:06;;;;;;;15.25;7.25;;;16.80;89.40;;;;;;5025682;28;20033;-63
2021/09/24 11:39:33;;;;;;;14.23;7.82;;;16.90;89.30;;;;;;5028182;28;20534;-65
2021/09/24 11:42:06;;;;;;;12.20;7.50;;;16.90;89.00;;;;;;5040638;28;20489;-64
2021/09/24 11:44:33;;;;;;;12.40;6.63;;;17.00;88.80;;;;;;5025037;28;20022;-64
2021/09/24 11:46:59;;;;;;;12.70;5.82;;;17.00;88.00;;;;;;5014080;28;20496;-63
2021/09/24 11:49:24;;;;;;;15.00;5.47;;;17.00;88.30;;;;;;5042599;28;20037;-64
2021/09/24 11:51:58;;;;;;;12.88;4.75;;;17.10;88.40;;;;;;5027092;28;20187;-63
2021/09/24 11:54:25;;;;;;;10.15;5.40;;;17.10;88.10;;;;;;5028828;28;20093;-64
2021/09/24 11:56:51;;;;;;;10.68;4.75;;;17.10;87.40;;;;;;5025751;28;20064;-64
2021/09/24 11:59:16;;;;;;;8.88;5.15;;;17.30;88.10;;;;;;5040280;28;20052;-65
2021/09/24 12:01:43;;;;;;;13.38;4.95;;;17.40;87.30;;;;;;5044609;28;20365;-63
2021/09/24 12:04:09;;;;;;;11.15;4.80;;;17.30;87.10;;;;;;5039291;28;20453;-66
2021/09/24 12:06:37;;;;;;;9.68;4.90;;;17.40;87.50;;;;;;5025451;28;20109;-65
2021/09/24 12:09:09;;;;;;;11.63;5.03;;;17.50;87.50;;;;;;5037445;28;20135;-64
2021/09/24 12:11:47;;;;;;;10.15;3.97;;;17.40;87.20;;;;;;5044675;28;20028;-65
2021/09/24 12:14:15;;;;;;;20.80;4.70;;;17.50;87.30;;;;;;5027668;28;20025;-64
2021/09/24 12:16:42;;;;;;;14.10;4.43;;;17.50;86.90;;;;;;5029994;28;20034;-63
2021/09/24 12:19:10;;;;;;;9.27;3.83;;;17.70;86.90;;;;;;5038393;28;20025;-64
2021/09/24 12:21:46;;;;;;;10.23;4.50;;;17.90;85.80;;;;;;5035814;28;20026;-64
2021/09/24 12:24:15;;;;;;;11.10;4.15;;;18.00;86.30;;;;;;5028540;28;20491;-65
2021/09/24 12:26:44;;;;;;;9.60;4.10;;;18.20;85.80;;;;;;5045300;28;20184;-63
2021/09/24 12:29:12;;;;;;;9.23;3.47;;;18.10;84.80;;;;;;5027612;28;20396;-64
2021/09/24 12:31:46;;;;;;;8.63;4.55;;;18.10;84.70;;;;;;5023743;28;20049;-62
2021/09/24 12:34:15;;;;;;;9.23;3.65;;;17.90;84.10;;;;;;5027115;28;20091;-64
2021/09/24 12:37:03;;;;;;;12.18;3.83;;;17.90;84.50;;;;;;5022283;28;20046;-63
2021/09/24 12:39:34;;;;;;;8.93;4.28;;;18.00;84.80;;;;;;5035262;28;20369;-64
2021/09/24 12:42:12;;;;;;;12.52;4.60;;;17.80;84.60;;;;;;5028510;28;20104;-63